createdAt,value
2018-02-14T00:00:58.706Z,0.99
2018-02-14T00:03:24.648Z,1.19
2018-02-14T00:05:50.576Z,1.04
2018-02-14T00:08:16.502Z,1.49
2018-02-14T00:10:42.440Z,1.74
2018-02-14T00:13:08.358Z,1.47
2018-02-14T00:15:34.292Z,1.14
2018-02-14T00:18:00.222Z,1.41
2018-02-14T00:20:26.147Z,1.22
2018-02-14T00:22:52.079Z,1.21
2018-02-14T00:25:17.998Z,0.75
2018-02-14T00:27:43.926Z,0.79
2018-02-14T00:30:09.846Z,0.87
2018-02-14T00:32:35.777Z,1.08
2018-02-14T00:35:01.732Z,1.09
2018-02-14T00:37:27.674Z,1.20
2018-02-14T00:39:53.636Z,1.26
2018-02-14T00:42:19.588Z,1.08
2018-02-14T00:44:45.522Z,1.27
2018-02-14T00:47:11.472Z,0.88
2018-02-14T00:49:37.421Z,1.22
2018-02-14T00:52:03.358Z,1.29
2018-02-14T00:54:29.279Z,1.16
2018-02-14T00:56:55.224Z,1.08
2018-02-14T00:59:21.176Z,1.10
2018-02-14T01:01:47.122Z,1.00
2018-02-14T01:04:13.056Z,1.28
2018-02-14T01:06:39.004Z,1.27
2018-02-14T01:09:10.163Z,0.96
2018-02-14T01:11:36.402Z,0.86
2018-02-14T01:14:02.587Z,1.01
2018-02-14T01:16:28.547Z,1.00
2018-02-14T01:18:54.469Z,0.71
2018-02-14T01:21:20.413Z,0.78
2018-02-14T01:23:46.379Z,0.50
2018-02-14T01:26:12.349Z,0.68
2018-02-14T01:28:38.295Z,1.47
2018-02-14T01:31:04.219Z,1.20
2018-02-14T01:33:30.159Z,0.94
2018-02-14T01:35:56.084Z,1.22
2018-02-14T01:38:22.009Z,1.38
2018-02-14T01:40:47.971Z,0.67
2018-02-14T01:43:13.927Z,0.58
2018-02-14T01:45:39.861Z,1.44
2018-02-14T01:48:05.801Z,0.83
2018-02-14T01:50:31.745Z,0.51
2018-02-14T01:52:57.670Z,0.95
2018-02-14T01:55:23.591Z,1.04
2018-02-14T01:57:49.517Z,0.94
2018-02-14T02:00:15.453Z,1.20
2018-02-14T02:02:41.377Z,0.78
2018-02-14T02:05:07.317Z,0.79
2018-02-14T02:07:33.255Z,0.83
2018-02-14T02:09:59.216Z,0.41
2018-02-14T02:12:25.153Z,0.11
2018-02-14T02:14:51.082Z,0.15
2018-02-14T02:17:17.045Z,0.18
2018-02-14T02:19:42.966Z,0.37
2018-02-14T02:22:08.928Z,0.30
2018-02-14T02:24:34.843Z,0.39
2018-02-14T02:27:00.785Z,0.80
2018-02-14T02:29:26.737Z,0.79
2018-02-14T02:31:52.667Z,0.57
2018-02-14T02:34:18.595Z,0.54
2018-02-14T02:36:44.523Z,0.39
2018-02-14T02:39:10.441Z,0.54
2018-02-14T02:41:36.366Z,0.49
2018-02-14T02:44:02.293Z,0.46
2018-02-14T02:46:28.217Z,0.40
2018-02-14T02:48:54.135Z,0.28
2018-02-14T02:51:20.049Z,0.27
2018-02-14T02:53:45.972Z,0.23
2018-02-14T02:56:11.919Z,0.44
2018-02-14T02:58:37.843Z,0.23
2018-02-14T03:01:03.780Z,0.29
2018-02-14T03:03:29.711Z,0.27
2018-02-14T03:05:55.776Z,0.14
2018-02-14T03:08:21.681Z,-0.17
2018-02-14T03:10:47.643Z,-0.05
2018-02-14T03:13:13.546Z,0.23
2018-02-14T03:15:39.509Z,0.05
2018-02-14T03:18:05.436Z,-0.07
2018-02-14T03:20:31.361Z,-0.34
2018-02-14T03:22:57.297Z,0.20
2018-02-14T03:25:23.217Z,0.32
2018-02-14T03:27:49.157Z,0.06
2018-02-14T03:30:15.077Z,0.22
2018-02-14T03:32:41.011Z,-0.13
2018-02-14T03:35:06.932Z,-0.13
2018-02-14T03:37:32.881Z,-0.08
2018-02-14T03:39:59.853Z,0.01
2018-02-14T03:42:25.797Z,-0.02
2018-02-14T03:44:51.801Z,-0.13
2018-02-14T03:47:17.733Z,-0.10
2018-02-14T03:49:43.685Z,-0.16
2018-02-14T03:52:09.610Z,0.22
2018-02-14T03:54:35.529Z,0.78
2018-02-14T03:57:01.478Z,0.04
2018-02-14T03:59:27.404Z,-0.05
2018-02-14T04:01:53.341Z,0.21
2018-02-14T04:04:19.251Z,0.28
2018-02-14T04:06:45.197Z,0.19
2018-02-14T04:09:11.127Z,0.03
2018-02-14T04:11:37.055Z,-0.30
2018-02-14T04:14:02.985Z,-0.41
2018-02-14T04:16:28.945Z,-0.33
2018-02-14T04:18:54.863Z,-0.50
2018-02-14T04:21:20.802Z,-0.47
2018-02-14T04:23:46.738Z,-0.63
2018-02-14T04:26:12.677Z,-0.61
2018-02-14T04:28:38.618Z,-0.39
2018-02-14T04:31:05.555Z,-0.33
2018-02-14T04:33:32.502Z,0.00
2018-02-14T04:35:58.454Z,-0.25
2018-02-14T04:38:24.386Z,-0.13
2018-02-14T04:40:50.324Z,0.00
2018-02-14T04:43:16.246Z,-0.23
2018-02-14T04:45:42.194Z,-0.18
2018-02-14T04:48:08.118Z,-0.31
2018-02-14T04:50:34.046Z,0.00
2018-02-14T04:52:59.974Z,-0.27
2018-02-14T04:55:25.894Z,-0.10
2018-02-14T04:57:51.814Z,-0.18
2018-02-14T05:00:17.752Z,-0.18
2018-02-14T05:02:43.674Z,-0.17
2018-02-14T05:05:09.628Z,-0.22
2018-02-14T05:07:35.570Z,-0.40
2018-02-14T05:10:01.542Z,-0.29
2018-02-14T05:12:27.475Z,-0.51
2018-02-14T05:14:53.410Z,-0.46
2018-02-14T05:17:19.363Z,-0.70
2018-02-14T05:19:45.306Z,-0.68
2018-02-14T05:22:11.254Z,-0.84
2018-02-14T05:24:37.174Z,-0.82
2018-02-14T05:27:03.130Z,-0.35
2018-02-14T05:29:29.054Z,-0.60
2018-02-14T05:31:54.988Z,-0.64
2018-02-14T05:34:20.914Z,-0.73
2018-02-14T05:36:46.846Z,-0.58
2018-02-14T05:39:12.778Z,-0.56
2018-02-14T05:41:38.740Z,-0.35
2018-02-14T05:44:04.670Z,-0.17
2018-02-14T05:46:30.604Z,0.02
2018-02-14T05:48:56.538Z,-0.24
2018-02-14T05:51:22.490Z,-0.28
2018-02-14T05:53:48.414Z,-0.52
2018-02-14T05:56:14.338Z,-0.59
2018-02-14T05:58:40.266Z,-0.66
2018-02-14T06:01:06.214Z,-0.41
2018-02-14T06:03:32.142Z,-0.52
2018-02-14T06:05:58.070Z,-0.43
2018-02-14T06:08:24.025Z,-0.51
2018-02-14T06:10:49.964Z,-0.65
2018-02-14T06:13:15.908Z,-0.65
2018-02-14T06:15:41.867Z,-0.49
2018-02-14T06:18:07.812Z,-0.72
2018-02-14T06:20:33.748Z,-0.61
2018-02-14T06:22:59.702Z,-0.32
2018-02-14T06:25:25.636Z,-0.46
2018-02-14T06:27:51.576Z,-0.57
2018-02-14T06:30:17.517Z,-0.45
2018-02-14T06:32:43.466Z,-0.16
2018-02-14T06:35:09.414Z,-0.31
2018-02-14T06:37:35.350Z,0.11
2018-02-14T06:40:01.297Z,-0.10
2018-02-14T06:42:27.230Z,0.10
2018-02-14T06:44:53.168Z,0.08
2018-02-14T06:47:19.099Z,-0.14
2018-02-14T06:49:45.021Z,0.12
2018-02-14T06:52:10.960Z,0.25
2018-02-14T06:54:36.891Z,0.58
2018-02-14T06:57:02.850Z,0.09
2018-02-14T06:59:28.780Z,-0.19
2018-02-14T07:01:54.702Z,0.00
2018-02-14T07:04:20.642Z,0.08
2018-02-14T07:06:46.574Z,-0.02
2018-02-14T07:09:12.490Z,0.00
2018-02-14T07:11:38.424Z,0.54
2018-02-14T07:14:04.342Z,0.78
2018-02-14T07:16:30.293Z,0.95
2018-02-14T07:18:56.226Z,0.74
2018-02-14T07:21:22.196Z,0.92
2018-02-14T07:23:48.119Z,1.16
2018-02-14T07:26:14.062Z,1.18
2018-02-14T07:28:39.994Z,1.15
2018-02-14T07:31:05.949Z,1.30
2018-02-14T07:33:31.868Z,1.32
2018-02-14T07:35:57.823Z,1.95
2018-02-14T07:38:23.750Z,2.10
2018-02-14T07:40:49.690Z,1.92
2018-02-14T07:43:15.614Z,2.49
2018-02-14T07:45:41.569Z,2.22
2018-02-14T07:48:07.568Z,2.52
2018-02-14T07:50:33.514Z,2.63
2018-02-14T07:52:59.470Z,2.93
2018-02-14T07:55:25.399Z,3.41
2018-02-14T07:57:51.352Z,3.09
2018-02-14T08:00:17.315Z,3.33
2018-02-14T08:02:43.289Z,3.61
2018-02-14T08:05:09.225Z,3.37
2018-02-14T08:07:35.174Z,4.25
2018-02-14T08:10:01.103Z,4.12
2018-02-14T08:12:29.566Z,3.63
2018-02-14T08:14:55.616Z,3.30
2018-02-14T08:17:21.554Z,3.45
2018-02-14T08:19:47.486Z,4.02
2018-02-14T08:22:13.438Z,4.11
2018-02-14T08:24:39.365Z,4.29
2018-02-14T08:27:05.319Z,4.58
2018-02-14T08:29:31.249Z,4.48
2018-02-14T08:31:57.191Z,4.53
2018-02-14T08:34:23.108Z,4.46
2018-02-14T08:36:49.052Z,4.87
2018-02-14T08:39:15.004Z,5.14
2018-02-14T08:41:40.947Z,5.07
2018-02-14T08:44:06.874Z,5.56
2018-02-14T08:46:32.827Z,5.50
2018-02-14T08:48:58.791Z,4.71
2018-02-14T08:51:24.745Z,5.49
2018-02-14T08:53:50.705Z,5.76
2018-02-14T08:56:16.662Z,5.66
2018-02-14T08:58:43.705Z,5.30
2018-02-14T09:01:09.657Z,5.83
2018-02-14T09:03:35.619Z,6.01
2018-02-14T09:06:01.571Z,5.68
2018-02-14T09:08:27.525Z,5.63
2018-02-14T09:10:53.466Z,5.36
2018-02-14T09:13:19.423Z,5.28
2018-02-14T09:15:45.369Z,5.94
2018-02-14T09:18:11.309Z,5.66
2018-02-14T09:20:37.269Z,5.45
2018-02-14T09:23:03.215Z,5.33
2018-02-14T09:25:29.169Z,5.89
2018-02-14T09:27:55.117Z,5.89
2018-02-14T09:30:21.057Z,5.36
2018-02-14T09:32:47.001Z,5.66
2018-02-14T09:35:13.015Z,5.84
2018-02-14T09:37:38.967Z,6.43
2018-02-14T09:40:04.930Z,6.56
2018-02-14T09:42:30.875Z,6.78
2018-02-14T09:44:56.912Z,6.19
2018-02-14T09:47:22.865Z,5.49
2018-02-14T09:49:48.787Z,5.74
2018-02-14T09:54:46.474Z,6.53
2018-02-14T09:57:12.424Z,5.94
2018-02-14T09:59:38.371Z,6.08
2018-02-14T10:02:04.334Z,6.41
2018-02-14T10:04:30.308Z,6.85
2018-02-14T10:06:56.254Z,6.20
2018-02-14T10:09:22.186Z,5.85
2018-02-14T10:11:48.140Z,5.84
2018-02-14T10:14:14.082Z,6.01
2018-02-14T10:16:40.086Z,5.59
2018-02-14T10:19:06.362Z,5.61
2018-02-14T10:21:32.378Z,5.95
2018-02-14T10:23:58.306Z,6.29
2018-02-14T10:26:24.276Z,6.40
2018-02-14T10:28:50.218Z,6.53
2018-02-14T10:31:16.176Z,6.21
2018-02-14T10:33:42.114Z,6.29
2018-02-14T10:36:08.054Z,6.17
2018-02-14T10:38:33.983Z,5.76
2018-02-14T10:40:59.935Z,5.79
2018-02-14T10:43:25.886Z,5.96
2018-02-14T10:45:51.826Z,6.30
2018-02-14T10:48:17.762Z,6.21
2018-02-14T10:50:43.706Z,5.97
2018-02-14T10:53:09.645Z,5.90
2018-02-14T10:55:35.732Z,5.84
2018-02-14T10:58:01.659Z,5.90
2018-02-14T11:00:27.608Z,5.85
2018-02-14T11:02:54.816Z,5.63
2018-02-14T11:05:20.810Z,5.76
2018-02-14T11:07:46.735Z,5.90
2018-02-14T11:10:12.687Z,5.93
2018-02-14T11:12:38.644Z,5.92
2018-02-14T11:15:04.570Z,6.07
2018-02-14T11:17:30.516Z,5.71
2018-02-14T11:19:56.483Z,5.56
2018-02-14T11:22:22.480Z,6.45
2018-02-14T11:24:48.390Z,6.40
2018-02-14T11:27:14.318Z,6.22
2018-02-14T11:29:40.255Z,5.84
2018-02-14T11:32:06.182Z,5.87
2018-02-14T11:34:32.108Z,5.80
2018-02-14T11:36:58.037Z,5.96
2018-02-14T11:39:23.964Z,6.24
2018-02-14T11:41:50.075Z,6.13
2018-02-14T11:44:16.017Z,6.56
2018-02-14T11:46:41.976Z,6.23
2018-02-14T11:49:07.930Z,6.50
2018-02-14T11:51:33.912Z,6.62
2018-02-14T11:53:59.839Z,6.85
2018-02-14T11:56:25.779Z,6.60
2018-02-14T11:58:51.718Z,6.54
2018-02-14T12:01:17.646Z,6.68
2018-02-14T12:03:43.588Z,6.60
2018-02-14T12:06:09.526Z,6.43
2018-02-14T12:08:35.507Z,6.58
2018-02-14T12:11:01.446Z,6.67
2018-02-14T12:13:27.370Z,6.80
2018-02-14T12:15:53.312Z,6.53
2018-02-14T12:18:19.279Z,6.54
2018-02-14T12:20:45.210Z,6.41
2018-02-14T12:23:11.132Z,6.48
2018-02-14T12:25:37.063Z,6.60
2018-02-14T12:28:02.990Z,6.76
2018-02-14T12:30:28.962Z,6.48
2018-02-14T12:32:54.881Z,6.69
2018-02-14T12:35:20.894Z,6.57
2018-02-14T12:37:46.827Z,6.65
2018-02-14T12:40:12.754Z,6.72
2018-02-14T12:42:38.681Z,6.77
2018-02-14T12:45:04.613Z,6.44
2018-02-14T12:47:30.553Z,6.67
2018-02-14T12:49:56.493Z,6.48
2018-02-14T12:52:22.427Z,6.62
2018-02-14T12:54:48.354Z,6.57
2018-02-14T12:57:14.311Z,6.81
2018-02-14T12:59:40.240Z,6.65
2018-02-14T13:02:06.183Z,6.51
2018-02-14T13:04:32.161Z,6.66
2018-02-14T13:06:58.109Z,6.44
2018-02-14T13:09:24.050Z,6.40
2018-02-14T13:11:49.999Z,6.28
2018-02-14T13:14:15.952Z,6.09
2018-02-14T13:16:41.896Z,6.33
2018-02-14T13:19:07.837Z,6.32
2018-02-14T13:21:33.868Z,6.36
2018-02-14T13:23:59.823Z,6.24
2018-02-14T13:26:25.754Z,6.29
2018-02-14T13:28:51.732Z,6.36
2018-02-14T13:31:17.663Z,6.35
2018-02-14T13:33:43.637Z,6.47
2018-02-14T13:36:09.595Z,6.45
2018-02-14T13:38:35.543Z,6.42
2018-02-14T13:41:01.487Z,6.25
2018-02-14T13:43:27.443Z,6.25
2018-02-14T13:45:53.365Z,6.15
2018-02-14T13:48:19.293Z,6.21
2018-02-14T13:50:45.221Z,6.22
2018-02-14T13:53:11.167Z,6.32
2018-02-14T13:55:37.102Z,6.15
2018-02-14T13:58:03.040Z,6.25
2018-02-14T14:00:28.963Z,6.17
2018-02-14T14:02:54.903Z,6.23
2018-02-14T14:05:20.834Z,6.47
2018-02-14T14:07:46.753Z,6.65
2018-02-14T14:10:12.689Z,6.77
2018-02-14T14:12:38.685Z,6.54
2018-02-14T14:15:04.636Z,6.60
2018-02-14T14:17:30.565Z,6.33
2018-02-14T14:19:56.497Z,6.32
2018-02-14T14:22:22.445Z,6.33
2018-02-14T14:24:48.383Z,6.46
2018-02-14T14:27:14.311Z,6.66
2018-02-14T14:29:40.276Z,6.56
2018-02-14T14:32:06.253Z,6.55
2018-02-14T14:34:32.219Z,6.56
2018-02-14T14:36:58.163Z,6.34
2018-02-14T14:39:24.102Z,6.22
2018-02-14T14:41:50.046Z,6.32
2018-02-14T14:44:15.982Z,6.36
2018-02-14T14:46:41.923Z,6.44
2018-02-14T14:49:07.842Z,6.60
2018-02-14T14:51:33.773Z,6.47
2018-02-14T14:53:59.705Z,6.48
2018-02-14T14:56:25.653Z,6.39
2018-02-14T14:58:51.585Z,6.37
2018-02-14T15:01:17.527Z,6.42
2018-02-14T15:03:43.451Z,6.10
2018-02-14T15:06:09.410Z,6.07
2018-02-14T15:08:35.338Z,6.08
2018-02-14T15:11:01.282Z,6.00
2018-02-14T15:13:27.197Z,6.06
2018-02-14T15:15:53.211Z,6.07
2018-02-14T15:18:19.145Z,6.16
2018-02-14T15:20:45.137Z,6.09
2018-02-14T15:23:11.064Z,6.02
2018-02-14T15:25:37.007Z,6.08
2018-02-14T15:28:02.939Z,6.47
2018-02-14T15:30:28.907Z,6.42
2018-02-14T15:32:54.867Z,6.18
2018-02-14T15:35:20.816Z,5.98
2018-02-14T15:37:46.766Z,5.73
2018-02-14T15:40:12.714Z,5.94
2018-02-14T15:42:38.652Z,5.99
2018-02-14T15:45:04.598Z,5.93
2018-02-14T15:47:30.658Z,5.79
2018-02-14T15:49:56.626Z,5.67
2018-02-14T15:52:22.573Z,5.86
2018-02-14T15:54:48.505Z,5.87
2018-02-14T15:57:14.432Z,6.19
2018-02-14T15:59:40.373Z,5.69
2018-02-14T16:02:06.316Z,5.55
2018-02-14T16:04:32.320Z,5.52
2018-02-14T16:06:58.276Z,5.59
2018-02-14T16:09:24.256Z,5.69
2018-02-14T16:11:50.278Z,5.60
2018-02-14T16:14:16.257Z,5.63
2018-02-14T16:16:42.183Z,5.68
2018-02-14T16:19:08.134Z,5.41
2018-02-14T16:21:34.068Z,5.52
2018-02-14T16:24:00.000Z,5.43
2018-02-14T16:26:25.932Z,5.61
2018-02-14T16:28:51.903Z,6.04
2018-02-14T16:31:17.847Z,5.60
2018-02-14T16:33:43.818Z,5.43
2018-02-14T16:36:09.752Z,5.72
2018-02-14T16:38:35.686Z,5.30
2018-02-14T16:41:01.624Z,5.25
2018-02-14T16:43:27.614Z,5.36
2018-02-14T16:45:53.585Z,5.36
2018-02-14T16:48:19.520Z,5.26
2018-02-14T16:50:45.478Z,5.15
2018-02-14T16:53:11.410Z,5.64
2018-02-14T16:55:37.354Z,5.36
2018-02-14T16:58:03.286Z,5.14
2018-02-14T17:00:29.223Z,4.96
2018-02-14T17:02:55.160Z,5.34
2018-02-14T17:05:21.115Z,5.36
2018-02-14T17:07:47.052Z,5.53
2018-02-14T17:10:13.010Z,5.30
2018-02-14T17:12:38.960Z,5.14
2018-02-14T17:15:04.906Z,5.49
2018-02-14T17:17:30.879Z,5.04
2018-02-14T17:19:56.818Z,4.65
2018-02-14T17:22:22.750Z,4.90
2018-02-14T17:24:48.683Z,4.66
2018-02-14T17:27:14.896Z,5.07
2018-02-14T17:29:40.856Z,4.79
2018-02-14T17:34:39.216Z,4.60
2018-02-14T17:37:05.161Z,4.57
2018-02-14T17:39:31.128Z,4.86
2018-02-14T17:41:57.111Z,4.68
2018-02-14T17:44:23.053Z,4.39
2018-02-14T17:46:50.111Z,4.55
2018-02-14T17:49:16.045Z,5.38
2018-02-14T17:51:41.972Z,5.34
2018-02-14T17:54:07.897Z,4.32
2018-02-14T17:56:33.835Z,4.08
2018-02-14T17:58:59.772Z,3.94
2018-02-14T18:01:25.703Z,3.91
2018-02-14T18:03:51.639Z,4.57
2018-02-14T18:06:17.585Z,4.94
2018-02-14T18:08:43.511Z,4.09
2018-02-14T18:11:09.463Z,4.10
2018-02-14T18:13:35.399Z,3.74
2018-02-14T18:16:01.462Z,4.25
2018-02-14T18:18:27.483Z,3.85
2018-02-14T18:20:53.503Z,3.69
2018-02-14T18:23:19.517Z,3.75
2018-02-14T18:25:45.562Z,3.73
2018-02-14T18:28:11.565Z,3.96
2018-02-14T18:30:37.512Z,3.82
2018-02-14T18:33:03.533Z,3.81
2018-02-14T18:35:30.591Z,3.63
2018-02-14T18:37:56.589Z,3.48
2018-02-14T18:40:22.615Z,3.80
2018-02-14T18:42:48.542Z,3.77
2018-02-14T18:45:14.486Z,3.50
2018-02-14T18:47:40.427Z,3.29
2018-02-14T18:50:06.400Z,3.04
2018-02-14T18:52:32.355Z,3.03
2018-02-14T18:54:58.300Z,2.79
2018-02-14T18:57:24.251Z,2.87
2018-02-14T18:59:50.208Z,2.81
2018-02-14T19:02:16.145Z,2.82
2018-02-14T19:04:42.128Z,2.73
2018-02-14T19:07:08.071Z,2.71
2018-02-14T19:09:34.052Z,2.80
2018-02-14T19:12:00.012Z,2.56
2018-02-14T19:14:25.970Z,2.53
2018-02-14T19:16:51.915Z,2.56
2018-02-14T19:19:17.892Z,2.74
2018-02-14T19:21:43.846Z,2.53
2018-02-14T19:24:09.774Z,2.43
2018-02-14T19:26:35.713Z,2.42
2018-02-14T19:29:01.660Z,2.60
2018-02-14T19:31:27.932Z,2.68
2018-02-14T19:33:53.929Z,2.84
2018-02-14T19:36:19.944Z,2.94
2018-02-14T19:38:45.935Z,2.64
2018-02-14T19:41:11.875Z,2.63
2018-02-14T19:43:37.854Z,2.75
2018-02-14T19:46:03.818Z,2.82
2018-02-14T19:48:29.798Z,2.82
2018-02-14T19:50:55.740Z,3.01
2018-02-14T19:53:21.708Z,2.57
2018-02-14T19:55:47.663Z,2.39
2018-02-14T19:58:13.621Z,2.57
2018-02-14T20:00:39.571Z,2.53
2018-02-14T20:03:05.590Z,2.60
2018-02-14T20:05:31.554Z,2.64
2018-02-14T20:07:57.531Z,2.67
2018-02-14T20:10:23.476Z,2.34
2018-02-14T20:12:49.412Z,2.69
2018-02-14T20:15:15.369Z,2.79
2018-02-14T20:17:41.312Z,3.01
2018-02-14T20:25:09.843Z,2.41
2018-02-14T20:27:35.777Z,2.59
2018-02-14T20:30:02.817Z,2.62
2018-02-14T20:32:28.786Z,2.47
2018-02-14T20:34:54.790Z,2.15
2018-02-14T20:37:21.834Z,1.81
2018-02-14T20:39:47.832Z,1.55
2018-02-14T20:42:13.810Z,1.80
2018-02-14T20:44:39.820Z,1.99
2018-02-14T20:47:05.832Z,2.38
2018-02-14T20:49:31.798Z,2.16
2018-02-14T20:51:57.750Z,1.93
2018-02-14T20:54:23.710Z,1.72
2018-02-14T20:56:49.665Z,1.48
2018-02-14T20:59:15.640Z,1.84
2018-02-14T21:01:44.691Z,2.10
2018-02-14T21:04:10.756Z,1.91
2018-02-14T21:06:36.751Z,1.69
2018-02-14T21:09:02.762Z,1.44
2018-02-14T21:11:28.739Z,1.53
2018-02-14T21:13:54.736Z,1.92
2018-02-14T21:16:20.726Z,1.55
2018-02-14T21:18:46.728Z,1.65
2018-02-14T21:21:12.739Z,2.04
2018-02-14T21:23:38.785Z,1.70
2018-02-14T21:26:04.785Z,1.77
2018-02-14T21:28:30.821Z,1.94
2018-02-14T21:30:56.810Z,1.43
2018-02-14T21:33:22.818Z,1.58
2018-02-14T21:35:48.826Z,1.59
2018-02-14T21:38:14.818Z,1.63
2018-02-14T21:40:40.860Z,2.68
2018-02-14T21:43:06.887Z,2.08
2018-02-14T21:45:32.865Z,1.63
2018-02-14T21:47:58.858Z,1.49
2018-02-14T21:50:28.615Z,1.86
2018-02-14T21:52:54.647Z,2.42
2018-02-14T21:55:20.626Z,2.35
2018-02-14T21:57:46.622Z,3.01
2018-02-14T22:00:12.623Z,3.42
2018-02-14T22:02:38.615Z,3.16
2018-02-14T22:05:04.606Z,2.82
2018-02-14T22:07:30.598Z,1.99
2018-02-14T22:09:56.624Z,1.47
2018-02-14T22:12:22.609Z,1.44
2018-02-14T22:14:48.641Z,1.53
2018-02-14T22:17:14.655Z,1.54
2018-02-14T22:19:40.667Z,1.24
2018-02-14T22:22:06.645Z,1.38
2018-02-14T22:24:32.655Z,1.34
2018-02-14T22:26:58.637Z,1.20
2018-02-14T22:29:24.636Z,0.98
2018-02-14T22:31:50.709Z,1.08
2018-02-14T22:34:16.701Z,0.85
2018-02-14T22:36:42.688Z,0.81
2018-02-14T22:39:08.711Z,0.90
2018-02-14T22:41:34.777Z,1.12
2018-02-14T22:44:01.849Z,1.19
2018-02-14T22:46:27.873Z,1.02
2018-02-14T22:48:53.877Z,1.64
2018-02-14T22:51:19.869Z,1.13
2018-02-14T22:53:45.855Z,0.80
2018-02-14T22:56:11.840Z,0.87
2018-02-14T22:58:37.868Z,0.77
2018-02-14T23:01:03.860Z,0.48
2018-02-14T23:03:29.851Z,0.64
2018-02-14T23:05:55.861Z,0.43
2018-02-14T23:08:21.862Z,0.66
2018-02-14T23:10:47.845Z,0.45
2018-02-14T23:13:13.833Z,0.88
2018-02-14T23:15:39.860Z,0.60
2018-02-14T23:18:05.848Z,1.03
2018-02-14T23:20:31.825Z,0.99
2018-02-14T23:22:57.814Z,0.90
2018-02-14T23:25:23.788Z,1.23
2018-02-14T23:27:49.802Z,1.18
2018-02-14T23:30:15.809Z,1.57
2018-02-14T23:32:41.833Z,0.79
2018-02-14T23:35:07.830Z,0.90
2018-02-14T23:37:33.836Z,0.93
2018-02-14T23:39:59.813Z,0.58
2018-02-14T23:42:25.794Z,0.70
2018-02-14T23:44:51.794Z,0.56
2018-02-14T23:47:17.784Z,0.52
2018-02-14T23:49:43.769Z,0.50
2018-02-14T23:52:09.756Z,0.62
2018-02-14T23:54:35.732Z,0.65
2018-02-14T23:57:01.740Z,0.51
2018-02-14T23:59:27.726Z,0.60
